Rosamond, CA

8:08 PM PST on December 09, 2016 (GMT -0800)
Rosamond - KI6VBC | | Change Station

Elev 2415 ft 34.87 °N, 118.15 °W | Updated 43 seconds ago

Clear
Clear
51.8 °F
Feels Like 51.8 °F
N
0.0
Wind Variable Wind from SW
Gusts 3.0 mph

Today
High -- | Low -- °F
--% Chance of Precip.
Yesterday
High -- | Low -- °F
Precip. -- in
Pressure 30.19 in
Visibility 10.0 miles
Clouds Clear
Dew Point 36 °F
Humidity 55%
Rainfall 0.00 in
Snow Depth Not available.
6:49 AM 4:41 PM
Waxing Gibbous, 80% visible
METAR KWJF 100356Z 22003KT 10SM CLR 12/06 A3019 RMK AO2 SLP223 T01220061
Pressure 30.19 in
Visibility 10.0 miles
Clouds Clear
Dew Point 36 °F
Humidity 55%
Rainfall 0.00 in
Snow Depth Not available.
6:49 AM 4:41 PM
Waxing Gibbous, 80% visible
METAR KWJF 100356Z 22003KT 10SM CLR 12/06 A3019 RMK AO2 SLP223 T01220061

10-Day Weather Forecast

Almanac

Astronomy

Dec. 09, 2016 Rise Set
Actual Time
Civil Twilight
Nautical Twilight
Astronomical Twilight
Moon
Length of Visible Light
Length of Day
Tomorrow will be .
, % of the Moon is Illuminated

Today's Extremes

State Highs State Lows

Community

WunderPhotos

Upload Photos

1,956,529 photos uploaded!

WunderBlog® & News

Nearby

Air Quality

  Air Quality AQ Index Pollutant
Not available.

Snow Depth

Station Depth Elevation

Earthquake Activity

City Distance Mag. Time & Date
Minimum magnitude displayed is 2.5.

Coastal Water Temperatures

Place Temperature

Stations

Nearby Weather Stations

Station Location Temp. Windchill Dew Point Humidity Wind Precip. Elev Updated Type
                   

Watches & Warnings

There are currently no watches in effect.